Time;durP1;ratioP1;P1;durP2;ratioP2;P2;SDS_P1;SDS_P2;PMS_P1;PMS_P2;Temp;Humidity;BMP_temperature;BMP_pressure;BME280_temperature;BME280_humidity;BME280_pressure;Samples;Min_cycle;Max_cycle;Signal;HPM_P1;HPM_P2
2022/07/03 00:01:36;;;;;;;4.30;2.08;;;29.90;60.60;;;;;;11003572;32;20053;-77
2022/07/03 00:07:39;;;;;;;3.95;1.50;;;29.90;60.90;;;;;;11016620;32;20041;-77
2022/07/03 00:13:41;;;;;;;6.15;2.35;;;29.90;60.90;;;;;;11022412;32;20022;-77
2022/07/03 00:19:43;;;;;;;7.95;3.25;;;29.90;61.30;;;;;;11023294;32;20342;-77
2022/07/03 00:25:45;;;;;;;3.20;1.92;;;29.80;61.60;;;;;;11023000;32;20048;-76
2022/07/03 00:31:49;;;;;;;4.35;2.53;;;29.70;62.00;;;;;;11022535;32;20022;-76
2022/07/03 00:37:51;;;;;;;10.77;2.72;;;29.40;62.40;;;;;;11022595;32;20080;-77
2022/07/03 00:43:53;;;;;;;2.85;2.25;;;29.40;62.50;;;;;;11022153;32;20049;-77
2022/07/03 00:50:14;;;;;;;5.35;2.53;;;29.40;62.90;;;;;;11022026;32;20292;-75
2022/07/03 00:56:23;;;;;;;3.92;1.85;;;29.40;62.80;;;;;;11021953;32;20334;-75
2022/07/03 01:02:38;;;;;;;3.20;2.03;;;29.30;63.20;;;;;;11021622;32;20044;-75
2022/07/03 01:08:47;;;;;;;4.60;2.12;;;29.30;63.70;;;;;;11021332;32;20010;-76
2022/07/03 01:15:11;;;;;;;4.07;2.60;;;29.30;64.00;;;;;;11007522;32;20049;-75
2022/07/03 01:21:39;;;;;;;2.28;1.73;;;29.30;63.80;;;;;;11020402;32;20055;-75
2022/07/03 01:28:14;;;;;;;4.25;2.15;;;29.30;63.60;;;;;;11020680;32;20331;-75
2022/07/03 01:34:19;;;;;;;3.28;1.87;;;29.30;63.60;;;;;;11020379;32;20037;-75
2022/07/03 01:40:24;;;;;;;2.83;1.92;;;29.30;63.60;;;;;;11020155;32;20030;-75
2022/07/03 01:46:30;;;;;;;5.00;1.83;;;29.20;63.60;;;;;;11019947;32;20033;-75
2022/07/03 01:52:32;;;;;;;10.03;2.80;;;29.20;63.60;;;;;;11019603;32;20038;-75
2022/07/03 01:58:34;;;;;;;2.45;1.60;;;29.10;63.70;;;;;;11019638;32;20338;-75
2022/07/03 02:04:43;;;;;;;2.65;1.77;;;29.00;63.70;;;;;;11019369;32;20034;-75
2022/07/03 02:11:06;;;;;;;3.65;1.87;;;29.00;63.80;;;;;;11019144;32;20026;-75
2022/07/03 02:17:20;;;;;;;6.25;2.60;;;28.90;63.80;;;;;;11016291;32;20026;-75
2022/07/03 02:23:29;;;;;;;6.80;2.45;;;28.90;64.20;;;;;;11018662;32;20342;-75
2022/07/03 02:29:55;;;;;;;3.78;2.53;;;28.80;64.30;;;;;;11018456;32;20049;-75
2022/07/03 02:35:59;;;;;;;4.45;1.80;;;28.80;64.10;;;;;;11014772;32;20045;-75
2022/07/03 02:42:24;;;;;;;3.78;2.20;;;28.70;64.30;;;;;;11018052;32;20057;-75
2022/07/03 02:48:34;;;;;;;2.72;1.98;;;28.60;64.30;;;;;;11018062;32;20026;-75
2022/07/03 02:54:44;;;;;;;7.82;2.35;;;28.30;64.60;;;;;;11017714;32;20022;-68
2022/07/03 03:01:06;;;;;;;4.78;2.37;;;28.40;64.60;;;;;;11000095;32;20022;-68
2022/07/03 03:07:37;;;;;;;2.35;2.03;;;28.40;64.60;;;;;;11013231;32;20031;-68
2022/07/03 03:13:45;;;;;;;4.75;1.80;;;28.40;64.50;;;;;;11013181;32;20030;-68
2022/07/03 03:19:58;;;;;;;2.25;2.05;;;28.40;64.50;;;;;;11012976;32;20038;-68
2022/07/03 03:26:11;;;;;;;7.97;2.78;;;28.30;64.50;;;;;;11012831;32;20026;-68
2022/07/03 03:32:16;;;;;;;8.43;2.58;;;28.30;64.60;;;;;;11013122;32;20030;-68
2022/07/03 03:38:18;;;;;;;3.25;1.85;;;28.30;64.90;;;;;;11012918;32;20030;-68
2022/07/03 03:44:20;;;;;;;5.45;2.08;;;28.30;65.10;;;;;;11013666;32;20022;-68
2022/07/03 03:50:23;;;;;;;4.62;2.10;;;28.20;65.00;;;;;;11006237;32;20084;-68
2022/07/03 03:56:25;;;;;;;2.42;1.67;;;28.20;65.00;;;;;;11005994;32;20022;-68
2022/07/03 04:02:27;;;;;;;2.08;1.23;;;28.20;65.00;;;;;;11021184;32;20030;-68
2022/07/03 04:08:31;;;;;;;3.80;1.50;;;28.10;65.00;;;;;;11019941;32;20387;-68
2022/07/03 04:14:36;;;;;;;3.62;1.60;;;28.10;64.90;;;;;;11019078;32;20057;-69
2022/07/03 04:20:38;;;;;;;1.98;1.40;;;28.10;64.80;;;;;;11018742;32;20026;-68
2022/07/03 04:26:40;;;;;;;1.98;1.17;;;28.00;65.00;;;;;;11006767;32;20049;-75
2022/07/03 04:32:42;;;;;;;2.92;1.70;;;27.90;65.10;;;;;;10985542;27;20058;-75
2022/07/03 04:38:44;;;;;;;3.53;1.50;;;28.00;65.20;;;;;;10970814;32;20391;-75
2022/07/03 04:44:46;;;;;;;1.50;1.12;;;27.90;65.30;;;;;;10984151;32;20019;-75
2022/07/03 04:50:49;;;;;;;0.82;0.73;;;28.00;65.30;;;;;;10983862;32;20053;-75
2022/07/03 04:56:54;;;;;;;1.90;1.12;;;28.00;65.30;;;;;;10982873;32;20011;-75
2022/07/03 05:02:56;;;;;;;2.92;1.40;;;28.00;65.30;;;;;;10983415;32;20049;-75
2022/07/03 05:08:58;;;;;;;3.20;1.65;;;28.10;65.30;;;;;;10983108;32;20339;-75
2022/07/03 05:15:00;;;;;;;1.55;1.12;;;28.20;65.30;;;;;;10982865;32;20034;-69
2022/07/03 05:21:03;;;;;;;1.85;0.90;;;28.30;65.20;;;;;;10970768;32;20045;-68
2022/07/03 05:27:25;;;;;;;2.80;1.12;;;28.40;65.10;;;;;;10978284;32;20023;-68
2022/07/03 05:33:56;;;;;;;0.50;0.50;;;28.50;65.00;;;;;;10965851;32;20042;-68
2022/07/03 05:39:58;;;;;;;1.73;0.90;;;28.60;64.90;;;;;;10979979;32;20046;-68
2022/07/03 05:46:00;;;;;;;1.35;0.70;;;28.70;64.90;;;;;;10964231;32;20049;-68
2022/07/03 05:52:03;;;;;;;1.25;0.75;;;28.80;64.60;;;;;;10977359;32;20030;-69
2022/07/03 05:58:06;;;;;;;0.88;0.68;;;28.90;64.40;;;;;;10977290;32;20053;-69
2022/07/03 06:04:08;;;;;;;1.45;0.88;;;29.10;64.10;;;;;;10981456;32;20056;-69
2022/07/03 06:10:11;;;;;;;0.98;0.80;;;29.30;63.90;;;;;;10977440;32;20319;-67
2022/07/03 06:16:13;;;;;;;2.90;1.23;;;29.30;63.60;;;;;;10980873;32;20378;-74
2022/07/03 06:22:15;;;;;;;1.55;1.15;;;29.40;63.40;;;;;;10980702;32;20049;-74
2022/07/03 06:28:17;;;;;;;1.60;0.90;;;29.50;63.20;;;;;;10980542;32;20045;-74
2022/07/03 06:34:20;;;;;;;1.17;1.00;;;29.60;63.20;;;;;;10980264;32;20026;-73
2022/07/03 06:40:23;;;;;;;7.37;1.35;;;29.70;62.70;;;;;;10980274;32;20061;-73
2022/07/03 06:47:02;;;;;;;1.77;0.88;;;29.80;62.60;;;;;;10980010;32;20018;-73
2022/07/03 06:53:05;;;;;;;1.45;0.80;;;29.90;62.30;;;;;;10789291;33;20103;-72
2022/07/03 06:59:11;;;;;;;0.70;0.60;;;30.00;62.00;;;;;;10787666;33;20039;-74
2022/07/03 07:05:13;;;;;;;2.78;1.15;;;30.10;61.90;;;;;;10789214;33;20372;-74
2022/07/03 07:11:16;;;;;;;1.62;0.80;;;30.20;61.60;;;;;;10788852;33;20036;-73
2022/07/03 07:17:18;;;;;;;1.65;1.10;;;30.30;61.10;;;;;;10788922;33;20055;-73
2022/07/03 07:23:20;;;;;;;0.88;0.73;;;30.50;60.90;;;;;;10794955;33;20052;-74
2022/07/03 07:29:41;;;;;;;1.52;1.02;;;30.50;60.20;;;;;;10974983;32;20046;-73
2022/07/03 07:35:43;;;;;;;1.48;0.75;;;30.60;59.80;;;;;;10986609;32;20066;-74
2022/07/03 07:41:45;;;;;;;2.30;1.30;;;30.70;59.50;;;;;;10986504;32;20034;-75
2022/07/03 07:47:47;;;;;;;2.08;0.93;;;30.80;58.80;;;;;;10986000;32;20064;-69
2022/07/03 07:53:52;;;;;;;2.17;0.68;;;30.90;58.20;;;;;;10985912;32;20027;-69
2022/07/03 07:59:54;;;;;;;2.85;1.52;;;31.00;57.60;;;;;;10972413;32;20026;-70
2022/07/03 08:06:03;;;;;;;3.03;1.27;;;31.10;57.20;;;;;;10985575;32;20015;-69
2022/07/03 08:12:22;;;;;;;2.95;1.20;;;31.20;57.00;;;;;;10984782;32;20069;-68
2022/07/03 08:18:24;;;;;;;0.62;0.50;;;31.30;56.90;;;;;;10985194;32;20049;-74
2022/07/03 08:24:33;;;;;;;1.05;0.70;;;31.40;57.20;;;;;;10971676;32;20045;-69
2022/07/03 08:30:35;;;;;;;0.62;0.50;;;31.50;56.90;;;;;;10970997;32;20019;-69
2022/07/03 08:36:39;;;;;;;3.58;1.37;;;31.60;56.60;;;;;;10970950;32;20034;-69
2022/07/03 08:42:56;;;;;;;1.23;0.93;;;31.70;56.10;;;;;;10970799;32;20049;-69
2022/07/03 08:49:01;;;;;;;5.90;1.50;;;31.80;55.10;;;;;;10984083;32;20015;-69
2022/07/03 08:55:04;;;;;;;2.95;1.23;;;31.80;53.90;;;;;;10970273;32;20442;-69
2022/07/03 09:01:07;;;;;;;5.25;1.52;;;31.80;53.30;;;;;;10981060;32;20347;-69
2022/07/03 09:07:10;;;;;;;9.65;1.92;;;32.00;52.70;;;;;;10983531;32;20019;-69
2022/07/03 09:13:13;;;;;;;3.10;1.65;;;32.20;52.10;;;;;;10983102;32;20056;-69
2022/07/03 09:19:15;;;;;;;3.10;1.17;;;32.30;51.50;;;;;;10983055;32;20395;-69
2022/07/03 09:25:17;;;;;;;2.58;1.35;;;32.40;51.80;;;;;;10982660;32;20030;-68
2022/07/03 09:31:22;;;;;;;2.70;1.00;;;32.50;52.00;;;;;;10982345;32;20026;-68
2022/07/03 09:37:31;;;;;;;5.03;2.05;;;32.70;51.50;;;;;;10982376;32;20430;-69
2022/07/03 09:43:33;;;;;;;4.85;1.30;;;32.90;50.90;;;;;;10968187;32;20027;-68
2022/07/03 09:49:56;;;;;;;3.47;1.60;;;32.90;50.40;;;;;;10981850;32;20023;-69
2022/07/03 09:55:59;;;;;;;5.22;2.60;;;33.10;50.20;;;;;;10981475;32;20383;-69
2022/07/03 10:02:08;;;;;;;4.37;1.98;;;33.10;49.50;;;;;;10981296;32;20041;-70
2022/07/03 10:08:15;;;;;;;4.05;2.08;;;33.30;48.90;;;;;;10967483;32;20027;-69
2022/07/03 10:14:21;;;;;;;3.03;1.42;;;33.50;48.70;;;;;;10967117;32;20034;-69
2022/07/03 10:20:35;;;;;;;2.37;1.33;;;33.60;47.90;;;;;;10978502;32;20022;-69
2022/07/03 10:26:38;;;;;;;3.67;1.87;;;33.60;47.60;;;;;;10980298;32;20379;-68
2022/07/03 10:32:46;;;;;;;5.10;1.90;;;33.70;47.10;;;;;;10980811;32;20049;-69
2022/07/03 10:38:51;;;;;;;2.80;1.45;;;33.80;47.00;;;;;;10966795;32;20022;-69
2022/07/03 10:45:09;;;;;;;2.87;1.40;;;33.90;47.10;;;;;;10980017;32;20062;-70
2022/07/03 10:51:13;;;;;;;3.25;1.75;;;34.20;46.60;;;;;;10975626;32;20026;-69
2022/07/03 10:57:17;;;;;;;6.32;2.12;;;34.30;46.70;;;;;;10978063;32;20022;-69
2022/07/03 11:03:52;;;;;;;2.95;1.58;;;34.50;45.90;;;;;;10979665;32;20391;-69
2022/07/03 11:10:12;;;;;;;5.00;2.12;;;34.80;45.60;;;;;;10975389;32;20085;-73
2022/07/03 11:16:23;;;;;;;5.95;2.25;;;35.00;45.10;;;;;;10979721;32;20100;-72
2022/07/03 11:22:27;;;;;;;4.50;2.10;;;35.00;44.60;;;;;;10979613;32;20065;-73
2022/07/03 11:29:18;;;;;;;2.72;1.58;;;35.10;44.10;;;;;;10525119;32;14071869;-75
2022/07/03 11:35:54;;;;;;;4.22;1.70;;;35.40;43.80;;;;;;10901324;32;20028;-73
2022/07/03 11:41:57;;;;;;;5.62;1.80;;;35.70;43.40;;;;;;10900012;32;20035;-73
2022/07/03 11:48:28;;;;;;;4.63;1.50;;;36.00;42.80;;;;;;10900529;32;20035;-72
2022/07/03 11:55:02;;;;;;;2.87;1.42;;;36.30;42.50;;;;;;10913839;32;20026;-72
2022/07/03 12:01:05;;;;;;;6.68;2.65;;;36.50;42.40;;;;;;10979005;32;20096;-72
2022/07/03 12:07:07;;;;;;;3.45;2.20;;;36.60;41.80;;;;;;10977631;32;20018;-74
2022/07/03 12:13:20;;;;;;;5.90;2.17;;;36.70;41.50;;;;;;10985329;32;20053;-73
2022/07/03 12:19:23;;;;;;;4.87;2.42;;;36.40;40.80;;;;;;10985280;32;20038;-73
2022/07/03 12:25:29;;;;;;;4.53;2.35;;;36.50;40.90;;;;;;10971522;32;20026;-73
2022/07/03 12:31:33;;;;;;;3.22;2.17;;;36.60;40.50;;;;;;10998767;27;20039;-73
2022/07/03 12:37:39;;;;;;;3.83;2.42;;;36.80;40.50;;;;;;10984558;32;20023;-73
2022/07/03 12:43:47;;;;;;;3.42;1.77;;;36.80;40.30;;;;;;10984544;32;20026;-72
2022/07/03 12:50:04;;;;;;;8.07;2.75;;;36.90;40.20;;;;;;10984247;32;20396;-72
2022/07/03 12:56:08;;;;;;;3.53;2.03;;;37.10;39.70;;;;;;10983827;32;20042;-73
2022/07/03 13:02:10;;;;;;;2.78;1.75;;;37.10;39.70;;;;;;10997492;32;20031;-74
2022/07/03 13:08:12;;;;;;;3.80;2.00;;;37.10;39.70;;;;;;11021921;32;20065;-73
2022/07/03 13:14:18;;;;;;;2.95;1.90;;;37.10;39.50;;;;;;11021366;32;20062;-69
2022/07/03 13:21:00;;;;;;;3.90;2.40;;;37.10;39.30;;;;;;11020300;32;20052;-69
2022/07/03 13:27:02;;;;;;;6.70;2.45;;;37.10;38.90;;;;;;11020608;32;20152;-70
2022/07/03 13:33:06;;;;;;;3.50;2.40;;;36.80;38.90;;;;;;11020698;32;20033;-75
2022/07/03 13:39:29;;;;;;;4.75;1.90;;;36.80;39.10;;;;;;11020434;32;20026;-73
2022/07/03 13:45:32;;;;;;;17.95;2.75;;;36.80;39.20;;;;;;11020357;32;20377;-74
2022/07/03 13:51:36;;;;;;;3.27;1.97;;;36.90;39.00;;;;;;11020073;32;20014;-70
2022/07/03 13:57:39;;;;;;;4.57;2.65;;;36.90;39.20;;;;;;11019895;32;20041;-73
2022/07/03 14:03:42;;;;;;;4.87;1.80;;;36.90;39.30;;;;;;11019907;32;20421;-72
2022/07/03 14:09:47;;;;;;;5.12;2.30;;;36.90;39.90;;;;;;11019397;32;20033;-73
2022/07/03 14:15:49;;;;;;;3.28;2.10;;;36.90;40.20;;;;;;11019340;32;20033;-73
2022/07/03 14:21:52;;;;;;;4.53;2.12;;;37.10;39.90;;;;;;11019078;32;20053;-73
2022/07/03 14:34:15;;;;;;;7.57;2.45;;;37.30;39.10;;;;;;11018663;32;20052;-73
2022/07/03 14:47:15;;;;;;;1.65;1.27;;;37.20;38.90;;;;;;11018556;32;20065;-70
2022/07/03 14:53:22;;;;;;;2.50;1.48;;;37.10;38.90;;;;;;11013961;32;20424;-75
2022/07/03 15:00:09;;;;;;;4.72;1.90;;;37.10;39.00;;;;;;11017922;32;20479;-69
2022/07/03 15:06:14;;;;;;;3.47;1.58;;;37.10;38.40;;;;;;11017768;32;20312;-70
2022/07/03 15:12:28;;;;;;;3.72;1.73;;;37.00;38.50;;;;;;11017626;32;20026;-69
2022/07/03 15:18:31;;;;;;;2.87;1.67;;;37.00;38.40;;;;;;11017560;32;20429;-73
2022/07/03 15:25:09;;;;;;;4.22;2.28;;;37.00;38.30;;;;;;11018346;32;20421;-74
2022/07/03 15:31:11;;;;;;;2.28;1.60;;;37.20;38.10;;;;;;11017422;32;20440;-73
2022/07/03 15:37:34;;;;;;;2.42;1.50;;;37.20;38.10;;;;;;11017250;32;20057;-74
2022/07/03 15:44:46;;;;;;;5.97;1.37;;;37.20;38.00;;;;;;11023596;32;20025;-73
2022/07/03 15:50:56;;;;;;;3.42;1.65;;;37.30;37.90;;;;;;11024538;32;20011;-72
2022/07/03 15:57:08;;;;;;;2.08;1.40;;;37.30;37.80;;;;;;11024101;32;20026;-74
2022/07/03 16:03:27;;;;;;;1.80;1.00;;;37.30;38.00;;;;;;11016253;32;20019;-74
2022/07/03 16:09:41;;;;;;;2.25;1.52;;;37.40;37.80;;;;;;11019818;32;20053;-74
2022/07/03 16:15:45;;;;;;;2.37;1.43;;;37.40;37.50;;;;;;11021641;32;20080;-73
2022/07/03 16:21:51;;;;;;;4.90;1.30;;;37.40;37.90;;;;;;11021089;32;20018;-73
2022/07/03 16:27:53;;;;;;;;;;;37.40;37.60;;;;;;11021315;32;20056;-73
2022/07/03 16:34:12;;;;;;;4.25;1.27;;;37.40;37.40;;;;;;11018295;32;19930;-73
2022/07/03 16:40:17;;;;;;;2.55;1.30;;;37.50;37.40;;;;;;11016386;32;20058;-73
2022/07/03 16:47:11;;;;;;;4.10;2.00;;;37.60;37.40;;;;;;10985839;32;20049;-73
2022/07/03 16:53:13;;;;;;;4.07;1.77;;;37.60;37.30;;;;;;10984163;32;20019;-73
2022/07/03 16:59:17;;;;;;;2.87;1.65;;;37.60;37.50;;;;;;10970647;32;20022;-73
2022/07/03 17:05:52;;;;;;;3.10;1.60;;;37.50;37.50;;;;;;11005646;32;20035;-73
2022/07/03 17:11:54;;;;;;;2.12;1.33;;;37.40;37.60;;;;;;11021567;32;20049;-73
2022/07/03 17:18:01;;;;;;;1.17;0.95;;;37.40;38.00;;;;;;11021548;32;20026;-73
2022/07/03 17:24:05;;;;;;;1.75;1.30;;;37.20;38.30;;;;;;11021373;32;20022;-73
2022/07/03 17:30:10;;;;;;;3.35;1.33;;;36.90;38.80;;;;;;11021016;32;20026;-73
2022/07/03 17:36:18;;;;;;;1.00;0.73;;;36.70;39.10;;;;;;11020896;32;20018;-73
2022/07/03 17:42:23;;;;;;;1.58;1.05;;;36.50;39.40;;;;;;11020493;32;20034;-73
2022/07/03 17:48:27;;;;;;;2.00;0.90;;;36.40;39.70;;;;;;11020282;32;20048;-73
2022/07/03 17:54:32;;;;;;;1.02;0.65;;;36.40;39.70;;;;;;11020094;32;20026;-73
2022/07/03 18:00:34;;;;;;;14.07;1.90;;;37.50;38.60;;;;;;11019200;32;20065;-73
2022/07/03 18:06:37;;;;;;;3.40;0.90;;;38.60;37.30;;;;;;11019310;32;20023;-73
2022/07/03 18:12:46;;;;;;;1.33;1.02;;;37.90;38.30;;;;;;11005784;32;20040;-73
2022/07/03 18:18:58;;;;;;;3.70;1.42;;;37.00;39.50;;;;;;11019219;32;20030;-73
2022/07/03 18:25:03;;;;;;;1.00;0.90;;;36.50;40.50;;;;;;11019011;32;20053;-73
2022/07/03 18:31:06;;;;;;;5.80;1.55;;;36.00;41.20;;;;;;11014625;32;20322;-73
2022/07/03 18:37:10;;;;;;;3.60;1.30;;;35.70;41.80;;;;;;11005160;32;20030;-74
2022/07/03 18:43:14;;;;;;;2.22;0.93;;;35.40;42.40;;;;;;11018516;32;20387;-73
2022/07/03 18:49:16;;;;;;;8.32;1.58;;;35.20;42.70;;;;;;11018394;32;20014;-74
2022/07/03 18:55:47;;;;;;;2.35;1.40;;;34.90;43.10;;;;;;11013876;32;20061;-74
2022/07/03 19:01:50;;;;;;;3.95;1.77;;;34.70;44.30;;;;;;11018250;32;20036;-74
2022/07/03 19:08:02;;;;;;;5.70;0.93;;;34.40;44.80;;;;;;11018024;32;20045;-74
2022/07/03 19:14:12;;;;;;;3.42;1.50;;;34.30;45.00;;;;;;11017869;32;20053;-74
2022/07/03 19:20:15;;;;;;;1.35;1.00;;;34.10;45.80;;;;;;11025420;32;20052;-74
2022/07/03 19:26:18;;;;;;;2.25;1.65;;;34.00;46.70;;;;;;11025711;32;20018;-74
2022/07/03 19:32:20;;;;;;;1.25;1.00;;;33.90;46.90;;;;;;11025359;32;20056;-74
2022/07/03 19:38:32;;;;;;;2.12;1.15;;;33.80;47.10;;;;;;11025329;32;20069;-74
2022/07/03 19:44:34;;;;;;;2.35;1.48;;;33.80;47.50;;;;;;11011408;32;20296;-74
2022/07/03 19:50:36;;;;;;;4.00;1.60;;;33.50;48.60;;;;;;11024776;32;20354;-74
2022/07/03 19:56:43;;;;;;;2.80;1.45;;;33.40;49.10;;;;;;11024439;32;20026;-74
2022/07/03 20:02:48;;;;;;;2.83;1.30;;;33.30;49.30;;;;;;11024392;32;20041;-75
2022/07/03 20:08:50;;;;;;;2.53;1.15;;;33.20;50.20;;;;;;11024223;32;20318;-75
2022/07/03 20:14:53;;;;;;;4.03;1.30;;;33.10;50.30;;;;;;11023948;32;20049;-75
2022/07/03 20:20:55;;;;;;;2.37;1.15;;;33.00;51.10;;;;;;11023231;32;20073;-75
2022/07/03 20:27:06;;;;;;;1.75;1.23;;;32.90;51.30;;;;;;11028398;27;20031;-70
2022/07/03 20:33:16;;;;;;;5.28;1.58;;;32.80;51.40;;;;;;10891027;32;20039;-70
2022/07/03 20:39:18;;;;;;;6.25;1.52;;;32.80;51.60;;;;;;10909585;32;20023;-70
2022/07/03 20:45:27;;;;;;;2.90;1.52;;;32.70;51.80;;;;;;10905406;32;20030;-70
2022/07/03 20:51:29;;;;;;;6.53;1.83;;;32.60;52.10;;;;;;10891259;32;20031;-70
2022/07/03 20:57:31;;;;;;;3.62;2.33;;;32.40;52.20;;;;;;10891659;32;20054;-70
2022/07/03 21:04:10;;;;;;;2.62;1.87;;;32.30;52.40;;;;;;10904275;32;20030;-70
2022/07/03 21:10:13;;;;;;;3.10;2.10;;;32.30;52.60;;;;;;10904091;32;20035;-70
2022/07/03 21:16:15;;;;;;;3.87;2.25;;;32.30;53.50;;;;;;10906143;32;20426;-70
2022/07/03 21:22:26;;;;;;;3.60;1.85;;;32.20;53.70;;;;;;10903532;32;20027;-70
2022/07/03 21:28:28;;;;;;;3.42;1.80;;;32.20;53.80;;;;;;10894118;32;20403;-70
2022/07/03 21:34:30;;;;;;;3.20;1.95;;;32.20;53.90;;;;;;10905929;32;20336;-69
2022/07/03 21:40:33;;;;;;;8.05;2.37;;;32.10;53.90;;;;;;10889591;32;20400;-69
2022/07/03 21:46:47;;;;;;;5.47;2.35;;;31.90;54.20;;;;;;10906877;32;20074;-70
2022/07/03 21:52:49;;;;;;;2.87;1.98;;;31.80;55.70;;;;;;10902398;32;20057;-70
2022/07/03 21:58:55;;;;;;;3.60;1.70;;;31.70;56.50;;;;;;10890043;32;20066;-70
2022/07/03 22:04:57;;;;;;;4.35;2.70;;;31.70;56.40;;;;;;10902503;32;20019;-70
2022/07/03 22:10:59;;;;;;;3.35;2.28;;;31.70;56.40;;;;;;10902020;32;20027;-69
2022/07/03 22:17:04;;;;;;;3.75;2.67;;;31.60;56.60;;;;;;10901477;32;20053;-70
2022/07/03 22:23:07;;;;;;;3.00;2.17;;;31.60;57.00;;;;;;10899302;32;20051;-70
2022/07/03 22:29:09;;;;;;;3.95;2.35;;;31.40;57.10;;;;;;10901381;32;20309;-70
2022/07/03 22:35:13;;;;;;;2.95;2.17;;;31.40;57.20;;;;;;10901438;32;20061;-70
2022/07/03 22:41:15;;;;;;;6.30;2.53;;;31.40;57.60;;;;;;10903297;32;20023;-70
2022/07/03 22:47:17;;;;;;;5.35;2.80;;;31.40;58.30;;;;;;10903956;32;20395;-70
2022/07/03 22:53:19;;;;;;;5.22;2.78;;;31.30;59.10;;;;;;10901839;32;20426;-75
2022/07/03 22:59:22;;;;;;;5.12;2.42;;;31.20;59.70;;;;;;10904720;32;20400;-75
2022/07/03 23:05:24;;;;;;;3.42;2.67;;;31.10;60.30;;;;;;10904488;32;20351;-75
2022/07/03 23:11:27;;;;;;;4.50;2.10;;;31.10;60.00;;;;;;10904460;32;20046;-75
2022/07/03 23:17:29;;;;;;;3.17;2.33;;;31.00;59.90;;;;;;10904360;32;20049;-75
2022/07/03 23:23:31;;;;;;;2.85;2.00;;;31.00;60.20;;;;;;10904257;32;20046;-75
2022/07/03 23:29:33;;;;;;;4.68;2.12;;;30.90;60.00;;;;;;10900872;32;20384;-70
2022/07/03 23:35:58;;;;;;;4.53;2.83;;;30.80;60.10;;;;;;10886265;32;20070;-69
2022/07/03 23:42:00;;;;;;;4.35;3.05;;;30.80;60.10;;;;;;10899645;32;20031;-70
2022/07/03 23:48:02;;;;;;;4.50;2.45;;;30.70;60.20;;;;;;10899528;32;20050;-70
2022/07/03 23:54:04;;;;;;;4.32;2.85;;;30.70;60.30;;;;;;10900068;32;20049;-69
